sensor_id;sensor_type;location;lat;lon;timestamp;pressure;altitude;pressure_sealevel;temperature;humidity
74437;BME280;62868;52.360;30.424;2022-09-09T00:03:29;1033.9;;;6.7;55.6
74437;BME280;62868;52.360;30.424;2022-09-09T00:09:02;1033.9;;;6.7;55.6
74437;BME280;62868;52.360;30.424;2022-09-09T00:13:46;1034;;;6.6;55.7
74437;BME280;62868;52.360;30.424;2022-09-09T00:23:34;1034.2;;;6.5;55.9
74437;BME280;62868;52.360;30.424;2022-09-09T00:28:27;1034.3;;;6.4;55.9
74437;BME280;62868;52.360;30.424;2022-09-09T00:33:18;1034.3;;;6.4;56
74437;BME280;62868;52.360;30.424;2022-09-09T00:38:28;1034.4;;;6.4;56.2
74437;BME280;62868;52.360;30.424;2022-09-09T00:43:38;1034.5;;;6.3;56.2
74437;BME280;62868;52.360;30.424;2022-09-09T00:49:04;1034.5;;;6.3;56.2
74437;BME280;62868;52.360;30.424;2022-09-09T00:54:19;1034.6;;;6.3;56.2
74437;BME280;62868;52.360;30.424;2022-09-09T00:58:47;1034.7;;;6.1;56.3
74437;BME280;62868;52.360;30.424;2022-09-09T01:03:36;1034.6;;;6.1;56.4
74437;BME280;62868;52.360;30.424;2022-09-09T01:09:16;1034.7;;;6;56.5
74437;BME280;62868;52.360;30.424;2022-09-09T01:13:56;1034.6;;;5.9;56.6
74437;BME280;62868;52.360;30.424;2022-09-09T01:18:28;1034.6;;;5.9;56.5
74437;BME280;62868;52.360;30.424;2022-09-09T01:23:35;1034.6;;;5.8;56.6
74437;BME280;62868;52.360;30.424;2022-09-09T01:28:19;1034.5;;;5.8;56.6
74437;BME280;62868;52.360;30.424;2022-09-09T01:33:43;1034.6;;;5.8;56.6
74437;BME280;62868;52.360;30.424;2022-09-09T01:38:37;1034.6;;;5.8;56.6
74437;BME280;62868;52.360;30.424;2022-09-09T01:43:47;1034.6;;;5.7;56.7
74437;BME280;62868;52.360;30.424;2022-09-09T01:48:41;1034.7;;;5.7;56.9
74437;BME280;62868;52.360;30.424;2022-09-09T01:53:31;1034.8;;;5.7;56.9
74437;BME280;62868;52.360;30.424;2022-09-09T02:03:52;1034.7;;;5.7;57.1
74437;BME280;62868;52.360;30.424;2022-09-09T02:08:48;1034.7;;;5.7;57.2
74437;BME280;62868;52.360;30.424;2022-09-09T02:13:34;1034.7;;;5.6;57.2
74437;BME280;62868;52.360;30.424;2022-09-09T02:18:29;1034.8;;;5.6;57.2
74437;BME280;62868;52.360;30.424;2022-09-09T02:23:56;1034.8;;;5.6;57.3
74437;BME280;62868;52.360;30.424;2022-09-09T02:28:55;1034.8;;;5.5;57.3
74437;BME280;62868;52.360;30.424;2022-09-09T02:33:17;1034.9;;;5.5;57.4
74437;BME280;62868;52.360;30.424;2022-09-09T02:38:53;1034.9;;;5.4;57.5
74437;BME280;62868;52.360;30.424;2022-09-09T02:43:55;1034.9;;;5.3;57.6
74437;BME280;62868;52.360;30.424;2022-09-09T02:48:36;1034.9;;;5.3;57.8
74437;BME280;62868;52.360;30.424;2022-09-09T02:53:24;1034.9;;;5.3;57.9
74437;BME280;62868;52.360;30.424;2022-09-09T02:58:37;1034.9;;;5.3;58
74437;BME280;62868;52.360;30.424;2022-09-09T03:03:27;1034.8;;;5.3;58
74437;BME280;62868;52.360;30.424;2022-09-09T03:08:17;1034.8;;;5.3;58.1
74437;BME280;62868;52.360;30.424;2022-09-09T03:13:37;1034.8;;;5.3;58.2
74437;BME280;62868;52.360;30.424;2022-09-09T03:18:55;1034.8;;;5.3;58.3
74437;BME280;62868;52.360;30.424;2022-09-09T03:23:43;1034.8;;;5.2;58.4
74437;BME280;62868;52.360;30.424;2022-09-09T03:28:55;1034.8;;;5.2;58.4
74437;BME280;62868;52.360;30.424;2022-09-09T03:33:37;1034.8;;;5.2;58.5
74437;BME280;62868;52.360;30.424;2022-09-09T03:38:41;1034.9;;;5.3;58.5
74437;BME280;62868;52.360;30.424;2022-09-09T03:43:55;1035.1;;;5.3;58.4
74437;BME280;62868;52.360;30.424;2022-09-09T03:48:37;1035.2;;;5.4;58.4
74437;BME280;62868;52.360;30.424;2022-09-09T03:53:18;1035;;;5.5;58.3
74437;BME280;62868;52.360;30.424;2022-09-09T03:58:17;1035.1;;;5.5;58.3
74437;BME280;62868;52.360;30.424;2022-09-09T04:03:35;1035.2;;;6.1;57.7
74437;BME280;62868;52.360;30.424;2022-09-09T04:08:43;1035;;;7.5;55.3
74437;BME280;62868;52.360;30.424;2022-09-09T04:13:17;1035.1;;;7.4;55.5
74437;BME280;62868;52.360;30.424;2022-09-09T04:18:45;1035.1;;;7.1;56.7
74437;BME280;62868;52.360;30.424;2022-09-09T04:23:43;1035.1;;;7.4;57
74437;BME280;62868;52.360;30.424;2022-09-09T04:28:36;1035.1;;;7.9;56.7
74437;BME280;62868;52.360;30.424;2022-09-09T04:33:45;1035;;;8.3;56.5
74437;BME280;62868;52.360;30.424;2022-09-09T04:38:57;1035.1;;;8.7;56.1
74437;BME280;62868;52.360;30.424;2022-09-09T04:43:33;1035.1;;;9.1;55.8
74437;BME280;62868;52.360;30.424;2022-09-09T04:48:25;1035.2;;;9.2;55.6
74437;BME280;62868;52.360;30.424;2022-09-09T04:53:55;1035.3;;;9.4;55.4
74437;BME280;62868;52.360;30.424;2022-09-09T04:58:47;1035.3;;;9.6;55.3
74437;BME280;62868;52.360;30.424;2022-09-09T05:03:59;1035.3;;;9.7;55.2
74437;BME280;62868;52.360;30.424;2022-09-09T05:08:38;1035.3;;;9.8;55.1
74437;BME280;62868;52.360;30.424;2022-09-09T05:13:47;1035.3;;;10.1;54.8
74437;BME280;62868;52.360;30.424;2022-09-09T05:19:01;1035.3;;;10.6;54.4
74437;BME280;62868;52.360;30.424;2022-09-09T05:23:37;1035.3;;;10.8;54.2
74437;BME280;62868;52.360;30.424;2022-09-09T05:28:37;1035.2;;;10.9;54.3
74437;BME280;62868;52.360;30.424;2022-09-09T05:33:35;1035.2;;;10.8;54.3
74437;BME280;62868;52.360;30.424;2022-09-09T05:38:29;1035.3;;;11.1;54.1
74437;BME280;62868;52.360;30.424;2022-09-09T05:43:18;1035.3;;;11.5;53.6
74437;BME280;62868;52.360;30.424;2022-09-09T05:48:38;1035.3;;;11.8;53.4
74437;BME280;62868;52.360;30.424;2022-09-09T05:53:59;1035.5;;;12.2;53
74437;BME280;62868;52.360;30.424;2022-09-09T05:58:59;1035.5;;;12.4;52.8
74437;BME280;62868;52.360;30.424;2022-09-09T06:03:48;1035.4;;;12.5;52.6
74437;BME280;62868;52.360;30.424;2022-09-09T06:08:57;1035.5;;;12.7;52.3
74437;BME280;62868;52.360;30.424;2022-09-09T06:13:59;1035.5;;;12.7;52.1
74437;BME280;62868;52.360;30.424;2022-09-09T06:19:00;1035.6;;;13.1;51.7
74437;BME280;62868;52.360;30.424;2022-09-09T06:23:38;1035.7;;;13.6;51.2
74437;BME280;62868;52.360;30.424;2022-09-09T06:28:17;1035.8;;;13.9;50.9
74437;BME280;62868;52.360;30.424;2022-09-09T06:34:00;1035.8;;;14.1;50.6
74437;BME280;62868;52.360;30.424;2022-09-09T06:38:47;1035.9;;;14.8;49.7
74437;BME280;62868;52.360;30.424;2022-09-09T06:43:38;1035.9;;;15;49.5
74437;BME280;62868;52.360;30.424;2022-09-09T06:48:49;1035.9;;;14.9;49.2
74437;BME280;62868;52.360;30.424;2022-09-09T06:53:50;1036;;;14.9;48.9
74437;BME280;62868;52.360;30.424;2022-09-09T06:58:39;1036;;;15.3;48.3
74437;BME280;62868;52.360;30.424;2022-09-09T07:03:48;1036;;;15.3;48.1
74437;BME280;62868;52.360;30.424;2022-09-09T07:09:00;1036;;;15.5;47.7
74437;BME280;62868;52.360;30.424;2022-09-09T07:13:27;1035.8;;;15.7;47.1
74437;BME280;62868;52.360;30.424;2022-09-09T07:18:27;1035.8;;;15.8;46.7
74437;BME280;62868;52.360;30.424;2022-09-09T07:24:02;1035.7;;;16;46.4
74437;BME280;62868;52.360;30.424;2022-09-09T07:28:51;1035.7;;;15.9;45.9
74437;BME280;62868;52.360;30.424;2022-09-09T07:34:04;1035.7;;;16.2;45.4
74437;BME280;62868;52.360;30.424;2022-09-09T07:38:39;1035.8;;;16.7;44.9
74437;BME280;62868;52.360;30.424;2022-09-09T07:43:50;1035.8;;;16.9;44.5
74437;BME280;62868;52.360;30.424;2022-09-09T07:49:02;1035.8;;;16.9;44.1
74437;BME280;62868;52.360;30.424;2022-09-09T07:53:38;1035.8;;;17.4;43.7
74437;BME280;62868;52.360;30.424;2022-09-09T07:58:38;1035.7;;;17.7;43.2
74437;BME280;62868;52.360;30.424;2022-09-09T08:03:33;1035.7;;;17.4;43.2
74437;BME280;62868;52.360;30.424;2022-09-09T08:08:28;1035.8;;;17.6;42.8
74437;BME280;62868;52.360;30.424;2022-09-09T08:13:40;1035.8;;;17.4;42.5
74437;BME280;62868;52.360;30.424;2022-09-09T08:18:27;1035.6;;;17.8;42.2
74437;BME280;62868;52.360;30.424;2022-09-09T08:24:01;1035.6;;;18.1;41.6
74437;BME280;62868;52.360;30.424;2022-09-09T08:29:02;1035.5;;;18.5;41.1
74437;BME280;62868;52.360;30.424;2022-09-09T08:33:37;1035.6;;;18.6;40.7
74437;BME280;62868;52.360;30.424;2022-09-09T08:38:36;1035.6;;;18.7;40.2
74437;BME280;62868;52.360;30.424;2022-09-09T08:43:50;1035.6;;;18.6;39.6
74437;BME280;62868;52.360;30.424;2022-09-09T08:49:09;1035.6;;;18.6;39.1
74437;BME280;62868;52.360;30.424;2022-09-09T08:53:28;1035.5;;;18.5;38.7
74437;BME280;62868;52.360;30.424;2022-09-09T08:58:28;1035.5;;;18.5;38.4
74437;BME280;62868;52.360;30.424;2022-09-09T09:08:56;1035.3;;;19;37.8
74437;BME280;62868;52.360;30.424;2022-09-09T09:13:45;1035.2;;;19.2;37.6
74437;BME280;62868;52.360;30.424;2022-09-09T09:18:52;1035.2;;;19.2;37.2
74437;BME280;62868;52.360;30.424;2022-09-09T09:23:50;1035.1;;;18.9;37.1
74437;BME280;62868;52.360;30.424;2022-09-09T09:28:47;1035.2;;;18.5;37.3
74437;BME280;62868;52.360;30.424;2022-09-09T09:33:48;1035.2;;;18.4;37.4
74437;BME280;62868;52.360;30.424;2022-09-09T09:39:00;1035.1;;;18.2;37.4
74437;BME280;62868;52.360;30.424;2022-09-09T09:43:36;1035;;;18.3;37.4
74437;BME280;62868;52.360;30.424;2022-09-09T09:48:17;1035.1;;;18.6;37
74437;BME280;62868;52.360;30.424;2022-09-09T09:53:29;1035.2;;;18.6;36.9
74437;BME280;62868;52.360;30.424;2022-09-09T09:59:01;1035.1;;;18.4;37.2
74437;BME280;62868;52.360;30.424;2022-09-09T10:04:02;1035.2;;;17.9;37.3
74437;BME280;62868;52.360;30.424;2022-09-09T10:08:44;1035.1;;;17.4;37.4
74437;BME280;62868;52.360;30.424;2022-09-09T10:19:47;1035.1;;;17.4;37.2
74437;BME280;62868;52.360;30.424;2022-09-09T10:23:48;1035.1;;;17.4;36.9
74437;BME280;62868;52.360;30.424;2022-09-09T10:28:51;1035;;;17.8;36.4
74437;BME280;62868;52.360;30.424;2022-09-09T10:33:33;1035.2;;;18.4;35.9
74437;BME280;62868;52.360;30.424;2022-09-09T10:44:46;1035.2;;;18.7;35.2
74437;BME280;62868;52.360;30.424;2022-09-09T10:49:51;1035.1;;;18.7;34.8
74437;BME280;62868;52.360;30.424;2022-09-09T10:54:06;1035.1;;;18.7;34.6
74437;BME280;62868;52.360;30.424;2022-09-09T10:58:50;1035.2;;;18.8;34.6
74437;BME280;62868;52.360;30.424;2022-09-09T11:03:41;1035.1;;;19.1;34.6
74437;BME280;62868;52.360;30.424;2022-09-09T11:08:51;1035.1;;;19.1;34.3
74437;BME280;62868;52.360;30.424;2022-09-09T11:14:09;1035.1;;;18.9;34.3
74437;BME280;62868;52.360;30.424;2022-09-09T11:19:01;1035.1;;;18.9;34.3
74437;BME280;62868;52.360;30.424;2022-09-09T11:23:20;1035.1;;;18.9;34.3
74437;BME280;62868;52.360;30.424;2022-09-09T11:28:32;1035;;;18.8;34.4
74437;BME280;62868;52.360;30.424;2022-09-09T11:33:34;1035;;;18.7;34.4
74437;BME280;62868;52.360;30.424;2022-09-09T11:38:51;1035;;;18.7;34.5
74437;BME280;62868;52.360;30.424;2022-09-09T11:43:40;1035;;;18.6;34.5
74437;BME280;62868;52.360;30.424;2022-09-09T11:48:58;1035;;;18.6;34.7
74437;BME280;62868;52.360;30.424;2022-09-09T11:53:52;1035;;;18.4;34.7
74437;BME280;62868;52.360;30.424;2022-09-09T11:59:29;1035;;;18.2;34.7
74437;BME280;62868;52.360;30.424;2022-09-09T12:03:33;1035;;;18.1;34.7
74437;BME280;62868;52.360;30.424;2022-09-09T12:09:08;1035;;;18.2;34.7
74437;BME280;62868;52.360;30.424;2022-09-09T12:13:19;1034.9;;;18.2;34.5
74437;BME280;62868;52.360;30.424;2022-09-09T12:18:35;1034.9;;;18.3;34.4
74437;BME280;62868;52.360;30.424;2022-09-09T12:23:32;1034.8;;;18.4;34.2
74437;BME280;62868;52.360;30.424;2022-09-09T12:29:05;1034.8;;;18.6;34.2
74437;BME280;62868;52.360;30.424;2022-09-09T12:33:49;1034.8;;;18.5;34.2
74437;BME280;62868;52.360;30.424;2022-09-09T12:38:36;1034.7;;;18.3;34.1
74437;BME280;62868;52.360;30.424;2022-09-09T12:44:03;1034.7;;;18.1;34.1
74437;BME280;62868;52.360;30.424;2022-09-09T12:48:49;1034.6;;;18.1;34.1
74437;BME280;62868;52.360;30.424;2022-09-09T12:53:37;1034.6;;;18.1;34.2
74437;BME280;62868;52.360;30.424;2022-09-09T12:58:37;1034.7;;;18.3;34.3
74437;BME280;62868;52.360;30.424;2022-09-09T13:03:42;1034.7;;;18.3;34.2
74437;BME280;62868;52.360;30.424;2022-09-09T13:08:17;1034.7;;;18.3;34.3
74437;BME280;62868;52.360;30.424;2022-09-09T13:13:19;1034.7;;;18.3;34.3
74437;BME280;62868;52.360;30.424;2022-09-09T13:18:40;1034.7;;;18.3;34.3
74437;BME280;62868;52.360;30.424;2022-09-09T13:23:42;1034.7;;;18.2;34.3
74437;BME280;62868;52.360;30.424;2022-09-09T13:29:08;1034.7;;;18.2;34.4
74437;BME280;62868;52.360;30.424;2022-09-09T13:34:34;1034.7;;;18.1;34.6
74437;BME280;62868;52.360;30.424;2022-09-09T13:38:37;1034.6;;;18;34.6
74437;BME280;62868;52.360;30.424;2022-09-09T13:44:04;1034.6;;;18;34.6
74437;BME280;62868;52.360;30.424;2022-09-09T13:53:59;1034.6;;;18;34.5
74437;BME280;62868;52.360;30.424;2022-09-09T13:58:41;1034.6;;;18;34.5
74437;BME280;62868;52.360;30.424;2022-09-09T14:03:35;1034.6;;;17.9;34.4
74437;BME280;62868;52.360;30.424;2022-09-09T14:09:02;1034.6;;;17.9;34.6
74437;BME280;62868;52.360;30.424;2022-09-09T14:14:04;1034.6;;;17.7;34.6
74437;BME280;62868;52.360;30.424;2022-09-09T14:18:42;1034.6;;;17.7;34.7
74437;BME280;62868;52.360;30.424;2022-09-09T14:23:52;1034.6;;;17.6;34.8
74437;BME280;62868;52.360;30.424;2022-09-09T14:28:46;1034.6;;;17.6;34.9
74437;BME280;62868;52.360;30.424;2022-09-09T14:33:17;1034.6;;;17.6;35.1
74437;BME280;62868;52.360;30.424;2022-09-09T14:38:50;1034.6;;;17.4;35.4
74437;BME280;62868;52.360;30.424;2022-09-09T14:44:00;1034.5;;;17.4;35.4
74437;BME280;62868;52.360;30.424;2022-09-09T14:48:28;1034.5;;;17.3;35.5
74437;BME280;62868;52.360;30.424;2022-09-09T14:53:28;1034.5;;;17.1;35.6
74437;BME280;62868;52.360;30.424;2022-09-09T14:59:00;1034.5;;;16.9;35.8
74437;BME280;62868;52.360;30.424;2022-09-09T15:03:36;1034.5;;;16.8;35.9
74437;BME280;62868;52.360;30.424;2022-09-09T15:09:00;1034.6;;;16.7;36.1
74437;BME280;62868;52.360;30.424;2022-09-09T15:13:36;1034.5;;;16.6;36.2
74437;BME280;62868;52.360;30.424;2022-09-09T15:18:50;1034.6;;;16.6;36.4
74437;BME280;62868;52.360;30.424;2022-09-09T15:24:00;1034.5;;;16.6;36.4
74437;BME280;62868;52.360;30.424;2022-09-09T15:28:38;1034.5;;;16.5;36.6
74437;BME280;62868;52.360;30.424;2022-09-09T15:33:38;1034.6;;;16.4;36.8
74437;BME280;62868;52.360;30.424;2022-09-09T15:38:18;1034.7;;;16.3;37
74437;BME280;62868;52.360;30.424;2022-09-09T15:43:36;1034.7;;;16.2;37.2
74437;BME280;62868;52.360;30.424;2022-09-09T15:48:42;1034.8;;;16.1;37.3
74437;BME280;62868;52.360;30.424;2022-09-09T15:53:30;1034.8;;;16;37.5
74437;BME280;62868;52.360;30.424;2022-09-09T15:59:04;1034.8;;;15.9;37.7
74437;BME280;62868;52.360;30.424;2022-09-09T16:04:04;1034.7;;;15.7;37.9
74437;BME280;62868;52.360;30.424;2022-09-09T16:08:37;1034.7;;;15.6;38.2
74437;BME280;62868;52.360;30.424;2022-09-09T16:14:02;1034.8;;;15.4;38.5
74437;BME280;62868;52.360;30.424;2022-09-09T16:19:05;1034.9;;;15.2;38.8
74437;BME280;62868;52.360;30.424;2022-09-09T16:24:02;1034.9;;;15;39
74437;BME280;62868;52.360;30.424;2022-09-09T16:28:18;1034.9;;;14.8;39.3
74437;BME280;62868;52.360;30.424;2022-09-09T16:33:18;1034.9;;;14.6;39.6
74437;BME280;62868;52.360;30.424;2022-09-09T16:39:03;1035;;;14.5;39.8
74437;BME280;62868;52.360;30.424;2022-09-09T16:43:53;1034.9;;;14.3;39.9
74437;BME280;62868;52.360;30.424;2022-09-09T16:48:31;1034.9;;;14.2;40.2
74437;BME280;62868;52.360;30.424;2022-09-09T16:53:18;1035;;;14;40.5
74437;BME280;62868;52.360;30.424;2022-09-09T16:58:50;1035;;;13.9;40.8
74437;BME280;62868;52.360;30.424;2022-09-09T17:03:28;1035;;;13.8;41.1
74437;BME280;62868;52.360;30.424;2022-09-09T17:08:53;1035;;;13.6;41.4
74437;BME280;62868;52.360;30.424;2022-09-09T17:14:04;1035;;;13.4;41.7
74437;BME280;62868;52.360;30.424;2022-09-09T17:18:28;1035;;;13.2;42.1
74437;BME280;62868;52.360;30.424;2022-09-09T17:23:18;1035;;;13.1;42.3
74437;BME280;62868;52.360;30.424;2022-09-09T17:29:02;1035;;;13;42.5
74437;BME280;62868;52.360;30.424;2022-09-09T17:33:20;1035;;;12.8;42.8
74437;BME280;62868;52.360;30.424;2022-09-09T17:39:02;1035;;;12.6;43.2
74437;BME280;62868;52.360;30.424;2022-09-09T17:43:26;1034.9;;;12.4;43.4
74437;BME280;62868;52.360;30.424;2022-09-09T17:49:05;1034.9;;;12.3;43.7
74437;BME280;62868;52.360;30.424;2022-09-09T17:53:50;1034.9;;;12.2;44
74437;BME280;62868;52.360;30.424;2022-09-09T17:58:38;1034.9;;;12.1;44.2
74437;BME280;62868;52.360;30.424;2022-09-09T18:03:28;1034.9;;;12;44.4
74437;BME280;62868;52.360;30.424;2022-09-09T18:08:28;1035;;;12;44.5
74437;BME280;62868;52.360;30.424;2022-09-09T18:13:36;1035;;;11.9;44.6
74437;BME280;62868;52.360;30.424;2022-09-09T18:18:28;1035;;;11.9;44.8
74437;BME280;62868;52.360;30.424;2022-09-09T18:23:54;1035;;;11.8;45
74437;BME280;62868;52.360;30.424;2022-09-09T18:29:13;1035;;;11.7;45.3
74437;BME280;62868;52.360;30.424;2022-09-09T18:33:48;1035;;;11.6;45.5
74437;BME280;62868;52.360;30.424;2022-09-09T18:38:44;1035;;;11.5;45.7
74437;BME280;62868;52.360;30.424;2022-09-09T18:43:36;1035;;;11.5;45.9
74437;BME280;62868;52.360;30.424;2022-09-09T18:48:46;1034.9;;;11.3;46.2
74437;BME280;62868;52.360;30.424;2022-09-09T18:54:03;1034.9;;;11.2;46.4
74437;BME280;62868;52.360;30.424;2022-09-09T18:58:28;1034.9;;;11.2;46.6
74437;BME280;62868;52.360;30.424;2022-09-09T19:03:50;1034.8;;;11.1;46.8
74437;BME280;62868;52.360;30.424;2022-09-09T19:08:26;1034.8;;;11;47
74437;BME280;62868;52.360;30.424;2022-09-09T19:13:52;1034.8;;;10.9;47.3
74437;BME280;62868;52.360;30.424;2022-09-09T19:18:18;1034.8;;;10.8;47.4
74437;BME280;62868;52.360;30.424;2022-09-09T19:24:06;1034.8;;;10.7;47.6
74437;BME280;62868;52.360;30.424;2022-09-09T19:28:46;1034.8;;;10.6;47.8
74437;BME280;62868;52.360;30.424;2022-09-09T19:33:46;1034.8;;;10.5;48
74437;BME280;62868;52.360;30.424;2022-09-09T19:38:51;1034.8;;;10.4;48.2
74437;BME280;62868;52.360;30.424;2022-09-09T19:44:03;1034.8;;;10.3;48.5
74437;BME280;62868;52.360;30.424;2022-09-09T19:48:18;1034.8;;;10.2;48.5
74437;BME280;62868;52.360;30.424;2022-09-09T19:53:39;1034.9;;;10.1;48.7
74437;BME280;62868;52.360;30.424;2022-09-09T19:58:42;1035;;;10;48.9
74437;BME280;62868;52.360;30.424;2022-09-09T20:03:50;1035.1;;;9.9;49.1
74437;BME280;62868;52.360;30.424;2022-09-09T20:09:02;1035.1;;;9.8;49.2
74437;BME280;62868;52.360;30.424;2022-09-09T20:13:35;1035.1;;;9.7;49.4
74437;BME280;62868;52.360;30.424;2022-09-09T20:19:03;1035;;;9.6;49.6
74437;BME280;62868;52.360;30.424;2022-09-09T20:23:52;1035.1;;;9.5;49.8
74437;BME280;62868;52.360;30.424;2022-09-09T20:28:36;1035.1;;;9.4;49.9
74437;BME280;62868;52.360;30.424;2022-09-09T20:33:42;1035.1;;;9.4;50
74437;BME280;62868;52.360;30.424;2022-09-09T20:38:18;1035.1;;;9.3;50.2
74437;BME280;62868;52.360;30.424;2022-09-09T20:43:36;1035.1;;;9.2;50.3
74437;BME280;62868;52.360;30.424;2022-09-09T20:48:30;1035.1;;;9.2;50.4
74437;BME280;62868;52.360;30.424;2022-09-09T20:53:42;1035.1;;;9.1;50.5
74437;BME280;62868;52.360;30.424;2022-09-09T20:59:05;1035.1;;;9.2;50.7
74437;BME280;62868;52.360;30.424;2022-09-09T21:03:40;1035.1;;;9.2;50.7
74437;BME280;62868;52.360;30.424;2022-09-09T21:08:18;1035.1;;;9.2;50.7
74437;BME280;62868;52.360;30.424;2022-09-09T21:13:36;1035.2;;;9.3;50.6
74437;BME280;62868;52.360;30.424;2022-09-09T21:18:46;1035.2;;;9.2;50.7
74437;BME280;62868;52.360;30.424;2022-09-09T21:24:02;1035.3;;;9.2;50.8
74437;BME280;62868;52.360;30.424;2022-09-09T21:28:50;1035.3;;;9.1;50.9
74437;BME280;62868;52.360;30.424;2022-09-09T21:33:18;1035.4;;;9;51
74437;BME280;62868;52.360;30.424;2022-09-09T21:38:20;1035.4;;;8.9;51.1
74437;BME280;62868;52.360;30.424;2022-09-09T21:43:52;1035.3;;;8.8;51.3
74437;BME280;62868;52.360;30.424;2022-09-09T21:48:42;1035.3;;;8.7;51.5
74437;BME280;62868;52.360;30.424;2022-09-09T21:53:53;1035.4;;;8.6;51.5
74437;BME280;62868;52.360;30.424;2022-09-09T21:58:46;1035.3;;;8.6;51.5
74437;BME280;62868;52.360;30.424;2022-09-09T22:03:46;1035.4;;;8.5;51.6
74437;BME280;62868;52.360;30.424;2022-09-09T22:08:38;1035.3;;;8.5;51.8
74437;BME280;62868;52.360;30.424;2022-09-09T22:13:52;1035.4;;;8.4;51.8
74437;BME280;62868;52.360;30.424;2022-09-09T22:19:02;1035.4;;;8.4;52
74437;BME280;62868;52.360;30.424;2022-09-09T22:23:18;1035.4;;;8.4;52.2
74437;BME280;62868;52.360;30.424;2022-09-09T22:28:36;1035.3;;;8.3;52.2
74437;BME280;62868;52.360;30.424;2022-09-09T22:33:54;1035.4;;;8.3;52.3
74437;BME280;62868;52.360;30.424;2022-09-09T22:38:50;1035.4;;;8.2;52.4
74437;BME280;62868;52.360;30.424;2022-09-09T22:44:00;1035.3;;;8.2;52.4
74437;BME280;62868;52.360;30.424;2022-09-09T22:48:36;1035.3;;;8.2;52.5
74437;BME280;62868;52.360;30.424;2022-09-09T22:53:34;1035.3;;;8.2;52.6
74437;BME280;62868;52.360;30.424;2022-09-09T22:59:00;1035.3;;;8.1;52.6
74437;BME280;62868;52.360;30.424;2022-09-09T23:03:18;1035.3;;;8.1;52.7
74437;BME280;62868;52.360;30.424;2022-09-09T23:08:36;1035.2;;;8.1;52.9
74437;BME280;62868;52.360;30.424;2022-09-09T23:13:18;1035.2;;;8;52.9
74437;BME280;62868;52.360;30.424;2022-09-09T23:18:18;1035.2;;;8;53
74437;BME280;62868;52.360;30.424;2022-09-09T23:23:42;1035.1;;;8;53.1
74437;BME280;62868;52.360;30.424;2022-09-09T23:28:42;1035.1;;;8;53.2
74437;BME280;62868;52.360;30.424;2022-09-09T23:33:52;1035.1;;;8;53.1
74437;BME280;62868;52.360;30.424;2022-09-09T23:39:00;1035.1;;;8;53.2
74437;BME280;62868;52.360;30.424;2022-09-09T23:43:46;1035.1;;;8;53.3
74437;BME280;62868;52.360;30.424;2022-09-09T23:48:50;1035.1;;;8;53.3
74437;BME280;62868;52.360;30.424;2022-09-09T23:54:02;1035.1;;;8.1;53.3
74437;BME280;62868;52.360;30.424;2022-09-09T23:59:02;1035.1;;;8.2;53.2
